Bookmark and Share
Track history (hours):
 

Naniwa Maru No.21

Last reported at 2014-Apr-17 04:33 UTC. Time now 2014-Apr-17 15:38 UTC.
Position N 33°49' E 130°23'.

Length 71 m; draft 5.2 m.

Type: Tanker. MMSI: 431301595.

NotesDate/timePositionNaut miles runAvg speedWind from/ knotsBaromVisibWave heightAir tempDewpointWater temp
2014-Apr-17 04:33N 33°49' E 130°23'1111.4
2014-Apr-17 03:33N 33°39' E 130°18'4 4.2
2014-Apr-17 02:32N 33°36' E 130°23'0 0.0
2014-Apr-17 01:33N 33°36' E 130°23'0 0.0
2014-Apr-17 00:32N 33°36' E 130°23'0 0.0
2014-Apr-16 23:32N 33°36' E 130°23'0 0.5
2014-Apr-16 22:33N 33°37' E 130°23'2 1.6
2014-Apr-16 21:32N 33°38' E 130°21'0 0.1
2014-Apr-16 20:33N 33°38' E 130°21'0 0.0
2014-Apr-16 19:33N 33°38' E 130°21'9 9.2
2014-Apr-16 18:33N 33°46' E 130°17'  
2014-Apr-13 04:07N 34°06' E 135°03'4 6.7
2014-Apr-13 03:31N 34°07' E 135°07'0 0.0
2014-Apr-13 02:31N 34°07' E 135°07'0 0.0
2014-Apr-13 01:31N 34°07' E 135°07'0 0.0
2014-Apr-13 00:31N 34°07' E 135°07'1 0.6
2014-Apr-12 23:29N 34°08' E 135°07'5 5.7
2014-Apr-12 22:34N 34°13' E 135°08'0 0.0
2014-Apr-12 21:33N 34°13' E 135°08'0 0.0
2014-Apr-12 20:34N 34°13' E 135°08'0 0.0
2014-Apr-12 19:34N 34°13' E 135°08'0 0.0
2014-Apr-12 18:34N 34°13' E 135°08'0 0.0
2014-Apr-12 17:34N 34°13' E 135°08'0 0.0
2014-Apr-12 16:33N 34°13' E 135°08'0 0.0
2014-Apr-12 15:33N 34°13' E 135°08'0 0.0
2014-Apr-12 14:34N 34°13' E 135°08'0 0.0
2014-Apr-12 13:34N 34°13' E 135°08'0 0.0
2014-Apr-12 12:33N 34°13' E 135°08'0 0.0
2014-Apr-12 11:34N 34°13' E 135°08'0 0.0
2014-Apr-12 10:27N 34°13' E 135°08'0 0.0
2014-Apr-12 09:33N 34°13' E 135°08'0 0.0
2014-Apr-12 08:28N 34°13' E 135°08'0 0.0
2014-Apr-12 07:28N 34°13' E 135°08'0 0.0
2014-Apr-12 06:34N 34°13' E 135°08'0 0.0
2014-Apr-12 04:33N 34°13' E 135°08'0 0.0
2014-Apr-12 01:25N 34°13' E 135°08'2 1.8
2014-Apr-12 00:31N 34°12' E 135°07'0 0.0
2014-Apr-11 23:31N 34°12' E 135°07'0 0.1
2014-Apr-11 22:32N 34°12' E 135°06'0 0.0
2014-Apr-11 21:31N 34°12' E 135°06'0 0.0
2014-Apr-11 20:29N 34°12' E 135°06'0 0.0
2014-Apr-11 19:31N 34°12' E 135°06'0 0.0
2014-Apr-11 18:32N 34°12' E 135°06'0 0.0
2014-Apr-11 17:32N 34°12' E 135°06'2 1.6
2014-Apr-11 16:33N 34°12' E 135°05'1313.1
2014-Apr-11 15:33N 34°08' E 134°49'  
2014-Apr-09 03:29N 33°49' E 130°23'1011.2
2014-Apr-09 02:33N 33°39' E 130°19'4 4.2
2014-Apr-09 01:33N 33°36' E 130°23'0 0.0
2014-Apr-09 00:33N 33°36' E 130°23'0 0.0
2014-Apr-08 23:32N 33°36' E 130°23'0 0.3
2014-Apr-08 22:33N 33°36' E 130°23'1 1.5
2014-Apr-08 21:32N 33°37' E 130°22'0 0.0
2014-Apr-08 20:33N 33°37' E 130°22'0 0.1
2014-Apr-08 19:33N 33°37' E 130°22'5 5.3
2014-Apr-08 18:33N 33°41' E 130°16'1312.6
2014-Apr-08 17:31N 33°51' E 130°25'1 0.0
2014-Apr-07 05:13N 33°52' E 130°26'914.1
2014-Apr-07 04:33N 33°45' E 130°19'  

Dump ship's entire track history

sailing weather and tide predictions

Naniwa Maru No.21 — JG5648 — position and weather